| time (UTC) | temp C | wind direction | speed KPH | gust KPH | rain 1hr cm | rain 24hr cm | rain mn cm | humidity % | barometer mb |
| 20260509200226 | 22 | 154 | 0.0 | 6.4 | 0.00 | 0.00 | 0.00 | 49 | 1009.9 |
| 20260509193231 | 21 | 163 | 3.2 | 8.0 | 0.00 | 0.00 | 0.00 | 46 | 1010.3 |
| 20260509190229 | 21 | 169 | 4.8 | 14.5 | 0.00 | 0.00 | 0.00 | 47 | 1010.4 |
| 20260509183230 | 21 | 73 | 3.2 | 11.3 | 0.00 | 0.00 | 0.00 | 48 | 1010.8 |
| 20260509180229 | 20 | 123 | 6.4 | 14.5 | 0.00 | 0.00 | 0.00 | 49 | 1011.3 |
| 20260509173215 | 20 | 61 | 4.8 | 14.5 | 0.00 | 0.00 | 0.00 | 49 | 1011.6 |
| 20260509170220 | 18 | 51 | 3.2 | 12.9 | 0.00 | 0.00 | 0.00 | 51 | 1012.2 |
| 20260509163219 | 19 | 20 | 3.2 | 14.5 | 0.00 | 0.00 | 0.00 | 50 | 1012.4 |
| 20260509160224 | 19 | 30 | 4.8 | 17.7 | 0.00 | 0.00 | 0.00 | 50 | 1011.8 |
| 20260509153228 | 19 | 49 | 4.8 | 12.9 | 0.00 | 0.00 | 0.00 | 47 | 1012.2 |
| 20260509150228 | 18 | 57 | 1.6 | 8.0 | 0.00 | 0.00 | 0.00 | 46 | 1012.4 |
| 20260509143229 | 18 | 36 | 8.0 | 14.5 | 0.00 | 0.00 | 0.00 | 47 | 1012.5 |
| 20260509140213 | 17 | 242 | 1.6 | 6.4 | 0.00 | 0.00 | 0.00 | 48 | 1012.8 |
| 20260509133215 | 16 | 242 | 0.0 | 3.2 | 0.00 | 0.00 | 0.00 | 53 | 1012.6 |
| 20260509130231 | 15 | 242 | 0.0 | 0.0 | 0.00 | 0.00 | 0.00 | 56 | 1012.8 |
| 20260509123232 | 15 | 242 | 0.0 | 0.0 | 0.00 | 0.00 | 0.00 | 59 | 1012.7 |
| 20260509120215 | 14 | 242 | 0.0 | 0.0 | 0.00 | 0.00 | 0.00 | 56 | 1012.8 |
| 20260509113217 | 14 | 242 | 0.0 | 1.6 | 0.00 | 0.00 | 0.00 | 52 | 1012.7 |
| 20260509110219 | 14 | 242 | 1.6 | 6.4 | 0.00 | 0.00 | 0.00 | 50 | 1012.2 |
| 20260509103220 | 14 | 241 | 3.2 | 11.3 | 0.00 | 0.00 | 0.00 | 50 | 1012.1 |
| 20260509100222 | 14 | 241 | 3.2 | 8.0 | 0.00 | 0.00 | 0.00 | 50 | 1012.1 |
| 20260509093220 | 14 | 241 | 3.2 | 8.0 | 0.00 | 0.00 | 0.00 | 51 | 1012.0 |
| 20260509090222 | 14 | 242 | 1.6 | 8.0 | 0.00 | 0.00 | 0.00 | 50 | 1012.1 |
| 20260509083225 | 14 | 242 | 1.6 | 6.4 | 0.00 | 0.00 | 0.00 | 50 | 1012.3 |
| 20260509080241 | 15 | 241 | 4.8 | 9.7 | 0.00 | 0.00 | 0.00 | 48 | 1012.3 |
| 20260509073224 | 15 | 241 | 4.8 | 11.3 | 0.00 | 0.00 | 0.00 | 49 | 1012.5 |
| 20260509070222 | 15 | 241 | 4.8 | 8.0 | 0.00 | 0.00 | 0.00 | 48 | 1012.6 |
| 20260509063225 | 15 | 244 | 6.4 | 14.5 | 0.00 | 0.00 | 0.00 | 48 | 1013.0 |
| 20260509060244 | 15 | 230 | 4.8 | 9.7 | 0.00 | 0.00 | 0.00 | 49 | 1013.1 |
| 20260509053225 | 15 | 228 | 0.0 | 3.2 | 0.00 | 0.00 | 0.00 | 50 | 1013.1 |
| 20260509050229 | 15 | 228 | 0.0 | 9.7 | 0.00 | 0.00 | 0.00 | 49 | 1013.1 |
| 20260509043231 | 14 | 228 | 0.0 | 8.0 | 0.00 | 0.00 | 0.00 | 51 | 1013.2 |
| 20260509040250 | 13 | 228 | 0.0 | 0.0 | 0.00 | 0.00 | 0.00 | 53 | 1013.1 |
| 20260509033251 | 13 | 228 | 0.0 | 0.0 | 0.00 | 0.00 | 0.00 | 53 | 1013.2 |
| 20260509030231 | 14 | 228 | 0.0 | 0.0 | 0.00 | 0.00 | 0.00 | 52 | 1013.2 |
| 20260509023231 | 15 | 228 | 0.0 | 3.2 | 0.00 | 0.00 | 0.00 | 48 | 1013.5 |
| 20260509020228 | 16 | 228 | 0.0 | 1.6 | 0.00 | 0.00 | 0.00 | 45 | 1013.4 |
| 20260509013229 | 16 | 228 | 0.0 | 0.0 | 0.00 | 0.00 | 0.00 | 44 | 1013.3 |
| 20260509010221 | 18 | 228 | 0.0 | 0.0 | 0.00 | 0.00 | 0.00 | 39 | 1013.2 |
| 20260509003215 | 19 | 228 | 0.0 | 3.2 | 0.00 | 0.00 | 0.00 | 35 | 1013.0 |
| 20260509000233 | 20 | 228 | 1.6 | 8.0 | 0.00 | 0.00 | 0.00 | 32 | 1012.8 |
| 20260508233230 | 21 | 285 | 1.6 | 4.8 | 0.00 | 0.00 | 0.00 | 31 | 1012.6 |
| 20260508230230 | 21 | 285 | 0.0 | 3.2 | 0.00 | 0.00 | 0.00 | 29 | 1012.3 |
| 20260508223216 | 22 | 285 | 1.6 | 6.4 | 0.00 | 0.00 | 0.00 | 30 | 1012.4 |
| 20260508220215 | 22 | 294 | 0.0 | 14.5 | 0.00 | 0.00 | 0.00 | 30 | 1012.2 |
| 20260508213248 | 21 | 360 | 6.4 | 17.7 | 0.00 | 0.00 | 0.00 | 29 | 1012.5 |
| 20260508210226 | 21 | 259 | 3.2 | 17.7 | 0.00 | 0.00 | 0.00 | 31 | 1012.7 |
| 20260508203220 | 20 | 269 | 4.8 | 22.5 | 0.00 | 0.00 | 0.00 | 30 | 1013.0 |